Time;durP1;ratioP1;P1;durP2;ratioP2;P2;SDS_P1;SDS_P2;PMS_P1;PMS_P2;Temp;Humidity;BMP_temperature;BMP_pressure;BME280_temperature;BME280_humidity;BME280_pressure;Samples;Min_cycle;Max_cycle;Signal;HPM_P1;HPM_P2
2023/11/09 00:00:38;;;;;;;;;;;15.60;89.40;;;;;;4028544;29;19935;-50
2023/11/09 00:03:19;;;;;;;;;;;15.60;89.30;;;;;;4028706;29;19950;-52
2023/11/09 00:06:00;;;;;;;;;;;15.70;89.20;;;;;;4028431;29;19939;-54
2023/11/09 00:08:43;;;;;;;;;;;15.80;89.80;;;;;;4028007;29;20410;-53
2023/11/09 00:11:25;;;;;;;;;;;15.80;89.60;;;;;;4031564;29;19938;-51
2023/11/09 00:14:14;;;;;;;;;;;15.80;88.60;;;;;;4030214;29;19938;-53
2023/11/09 00:16:57;;;;;;;;;;;15.80;88.60;;;;;;4017005;29;19938;-52
2023/11/09 00:19:37;;;;;;;;;;;15.80;88.60;;;;;;4028671;29;19942;-55
2023/11/09 00:22:19;;;;;;;;;;;15.80;88.60;;;;;;4028325;29;19983;-53
2023/11/09 00:25:00;;;;;;;;;;;15.90;88.60;;;;;;4016549;29;20390;-58
2023/11/09 00:27:41;;;;;;;;;;;15.90;88.60;;;;;;4028434;29;20435;-52
2023/11/09 00:30:22;;;;;;;;;;;15.90;88.60;;;;;;4016626;29;19934;-51
2023/11/09 00:33:04;;;;;;;;;;;15.90;88.60;;;;;;4039491;29;19993;-53
2023/11/09 00:35:46;;;;;;;;;;;15.90;88.40;;;;;;4031688;29;19938;-54
2023/11/09 00:38:27;;;;;;;;;;;15.90;89.20;;;;;;4043236;29;20074;-56
2023/11/09 00:41:08;;;;;;;;;;;15.90;88.40;;;;;;4033100;29;19939;-52
2023/11/09 00:43:50;;;;;;;;;;;15.90;88.50;;;;;;4015839;29;20084;-57
2023/11/09 00:46:33;;;;;;;;;;;15.90;89.40;;;;;;4028143;29;20406;-54
2023/11/09 00:49:16;;;;;;;;;;;16.00;88.50;;;;;;4027331;29;19950;-52
2023/11/09 00:51:56;;;;;;;;;;;16.00;88.30;;;;;;4016411;29;19939;-56
2023/11/09 00:54:37;;;;;;;;;;;16.00;89.00;;;;;;4016032;29;19942;-57
2023/11/09 00:57:20;;;;;;;;;;;16.00;88.10;;;;;;4016269;29;19970;-55
2023/11/09 01:00:01;;;;;;;;;;;16.00;88.20;;;;;;4030787;29;20014;-53
2023/11/09 01:02:44;;;;;;;;;;;16.00;88.20;;;;;;4027797;29;19938;-56
2023/11/09 01:05:26;;;;;;;;;;;16.00;88.20;;;;;;4027592;29;19938;-54
2023/11/09 01:08:07;;;;;;;;;;;16.00;88.20;;;;;;4026987;29;20426;-54
2023/11/09 01:10:48;;;;;;;;;;;16.00;88.30;;;;;;4030177;29;19978;-53
2023/11/09 01:13:29;;;;;;;;;;;16.00;88.40;;;;;;4027103;29;19935;-53
2023/11/09 01:16:10;;;;;;;;;;;16.00;88.40;;;;;;4027633;29;20400;-56
2023/11/09 01:18:51;;;;;;;;;;;16.00;88.60;;;;;;4027369;29;20391;-55
2023/11/09 01:21:34;;;;;;;;;;;15.90;88.60;;;;;;4016429;29;20438;-52
2023/11/09 01:24:17;;;;;;;;;;;15.90;88.70;;;;;;4023932;29;20009;-47
2023/11/09 01:26:58;;;;;;;;;;;15.90;88.90;;;;;;4042420;29;20154;-47
2023/11/09 01:29:39;;;;;;;;;;;16.00;88.80;;;;;;4029037;29;20410;-48
2023/11/09 01:32:19;;;;;;;;;;;16.00;88.70;;;;;;4008533;29;19978;-53
2023/11/09 01:35:00;;;;;;;;;;;16.10;89.60;;;;;;4026655;29;20076;-56
2023/11/09 01:37:42;;;;;;;;;;;16.10;88.60;;;;;;4027469;29;20556;-55
2023/11/09 01:40:24;;;;;;;;;;;16.10;88.40;;;;;;4015639;29;20400;-53
2023/11/09 01:43:11;;;;;;;;;;;16.10;88.30;;;;;;4015991;29;19939;-53
2023/11/09 01:45:52;;;;;;;;;;;16.20;88.30;;;;;;4026459;29;20403;-53
2023/11/09 01:48:34;;;;;;;;;;;16.10;88.30;;;;;;4028428;29;19935;-55
2023/11/09 01:51:16;;;;;;;;;;;16.10;88.30;;;;;;4042238;29;20587;-55
2023/11/09 01:53:59;;;;;;;;;;;16.10;88.30;;;;;;4042599;29;19938;-55
2023/11/09 01:56:40;;;;;;;;;;;16.00;88.40;;;;;;4028445;29;19939;-54
2023/11/09 01:59:21;;;;;;;;;;;16.00;88.50;;;;;;4026927;29;19935;-53
2023/11/09 02:02:02;;;;;;;;;;;16.00;88.80;;;;;;4026246;29;19950;-57
2023/11/09 02:04:45;;;;;;;;;;;16.10;88.90;;;;;;4015513;29;19935;-52
2023/11/09 02:07:25;;;;;;;;;;;16.10;88.70;;;;;;4015068;29;19939;-56
2023/11/09 02:10:11;;;;;;;;;;;16.20;89.40;;;;;;4026795;29;20679;-53
2023/11/09 02:12:52;;;;;;;;;;;16.20;88.30;;;;;;4026558;29;19935;-55
2023/11/09 02:15:32;;;;;;;;;;;16.20;88.10;;;;;;4030697;29;19938;-56
2023/11/09 02:18:13;;;;;;;;;;;16.20;88.10;;;;;;4041824;29;20374;-54
2023/11/09 02:20:53;;;;;;;;;;;16.20;88.30;;;;;;4028648;29;19938;-53
2023/11/09 02:23:34;;;;;;;;;;;16.20;88.20;;;;;;4031243;29;19934;-55
2023/11/09 02:26:17;;;;;;;;;;;16.10;89.20;;;;;;4044603;29;19934;-53
2023/11/09 02:28:58;;;;;;;;;;;16.10;88.50;;;;;;4028342;29;20310;-52
2023/11/09 02:31:38;;;;;;;;;;;16.10;88.80;;;;;;4045247;29;20083;-51
2023/11/09 02:34:23;;;;;;;;;;;16.10;88.80;;;;;;4037846;29;19951;-51
2023/11/09 02:37:06;;;;;;;;;;;16.10;88.80;;;;;;4036225;29;19943;-52
2023/11/09 02:39:51;;;;;;;;;;;16.20;88.60;;;;;;4033693;29;19983;-53
2023/11/09 02:42:33;;;;;;;;;;;16.20;88.40;;;;;;4045400;29;19938;-47
2023/11/09 02:45:14;;;;;;;;;;;16.20;88.40;;;;;;4044548;29;20283;-47
2023/11/09 02:47:54;;;;;;;;;;;16.20;88.50;;;;;;4038516;29;19939;-49
2023/11/09 02:50:35;;;;;;;;;;;16.30;88.50;;;;;;4032991;29;19939;-50
2023/11/09 02:53:15;;;;;;;;;;;16.30;88.40;;;;;;4030229;29;19939;-51
2023/11/09 02:55:56;;;;;;;;;;;16.20;89.30;;;;;;4017846;29;20072;-52
2023/11/09 02:58:39;;;;;;;;;;;16.30;88.70;;;;;;4018271;29;19939;-50
2023/11/09 03:01:19;;;;;;;;;;;16.30;88.60;;;;;;4029766;29;19935;-51
2023/11/09 03:04:00;;;;;;;;;;;16.30;88.60;;;;;;4029256;29;19939;-49
2023/11/09 03:06:41;;;;;;;;;;;16.30;88.50;;;;;;4029733;29;19939;-52
2023/11/09 03:09:22;;;;;;;;;;;16.30;88.70;;;;;;4028794;29;19935;-51
2023/11/09 03:12:05;;;;;;;;;;;16.30;88.80;;;;;;4017022;29;19938;-48
2023/11/09 03:14:47;;;;;;;;;;;16.30;88.70;;;;;;4026503;29;20401;-55
2023/11/09 03:17:28;;;;;;;;;;;16.30;88.70;;;;;;4030627;29;20410;-52
2023/11/09 03:20:10;;;;;;;;;;;16.30;88.50;;;;;;4032697;29;20014;-52
2023/11/09 03:22:50;;;;;;;;;;;16.40;88.60;;;;;;4044185;29;19967;-51
2023/11/09 03:25:31;;;;;;;;;;;16.30;88.60;;;;;;4017027;29;19939;-49
2023/11/09 03:28:12;;;;;;;;;;;16.30;88.70;;;;;;4026616;29;19939;-49
2023/11/09 03:30:56;;;;;;;;;;;16.30;89.50;;;;;;4043094;29;19934;-54
2023/11/09 03:33:37;;;;;;;;;;;16.20;88.50;;;;;;4029233;29;20456;-49
2023/11/09 03:36:18;;;;;;;;;;;16.20;88.70;;;;;;4028375;29;19983;-49
2023/11/09 03:39:01;;;;;;;;;;;16.30;89.10;;;;;;4028636;29;20030;-50
2023/11/09 03:41:44;;;;;;;;;;;16.30;89.10;;;;;;4017126;29;20285;-48
2023/11/09 03:44:26;;;;;;;;;;;16.30;89.10;;;;;;4028719;29;20329;-51
2023/11/09 03:47:08;;;;;;;;;;;16.30;88.90;;;;;;4028371;29;19935;-47
2023/11/09 03:49:49;;;;;;;;;;;16.30;88.80;;;;;;4028378;29;19939;-48
2023/11/09 03:52:29;;;;;;;;;;;16.30;88.90;;;;;;4016826;29;19935;-47
2023/11/09 03:55:11;;;;;;;;;;;16.30;89.00;;;;;;4028128;29;19935;-47
2023/11/09 03:57:53;;;;;;;;;;;16.30;89.00;;;;;;4038596;29;20583;-47
2023/11/09 04:00:33;;;;;;;;;;;16.30;90.00;;;;;;4040128;29;20158;-49
2023/11/09 04:03:15;;;;;;;;;;;16.30;89.10;;;;;;4032479;29;20340;-48
2023/11/09 04:05:56;;;;;;;;;;;16.30;89.20;;;;;;4028969;29;20394;-47
2023/11/09 04:08:37;;;;;;;;;;;16.30;89.00;;;;;;4028639;29;19939;-49
2023/11/09 04:11:18;;;;;;;;;;;16.30;88.90;;;;;;4029048;29;20323;-48
2023/11/09 04:13:59;;;;;;;;;;;16.30;89.00;;;;;;4028144;29;19938;-47
2023/11/09 04:16:39;;;;;;;;;;;16.30;89.10;;;;;;4028312;29;20014;-50
2023/11/09 04:19:22;;;;;;;;;;;16.30;89.10;;;;;;4028326;29;19982;-48
2023/11/09 04:22:04;;;;;;;;;;;16.30;89.00;;;;;;4028235;29;19962;-49
2023/11/09 04:24:44;;;;;;;;;;;16.30;89.80;;;;;;4027588;29;19939;-48
2023/11/09 04:27:25;;;;;;;;;;;16.30;89.10;;;;;;4028325;29;19935;-44
2023/11/09 04:30:09;;;;;;;;;;;16.30;89.10;;;;;;4020935;29;19954;-44
2023/11/09 04:32:51;;;;;;;;;;;16.30;89.30;;;;;;4027902;29;19938;-44
2023/11/09 04:35:33;;;;;;;;;;;16.20;89.40;;;;;;4027355;29;19996;-44
2023/11/09 04:38:15;;;;;;;;;;;16.30;89.50;;;;;;4034853;29;19983;-46
2023/11/09 04:41:01;;;;;;;;;;;16.30;89.40;;;;;;4042727;29;20075;-44
2023/11/09 04:43:43;;;;;;;;;;;16.30;89.20;;;;;;4043424;29;19978;-45
2023/11/09 04:46:24;;;;;;;;;;;16.40;89.20;;;;;;4027571;29;19939;-48
2023/11/09 04:49:07;;;;;;;;;;;16.40;89.20;;;;;;4039979;29;19938;-45
2023/11/09 04:51:51;;;;;;;;;;;16.40;89.10;;;;;;4043421;29;20060;-46
2023/11/09 04:54:44;;;;;;;;;;;16.40;89.10;;;;;;4042730;29;19935;-44
2023/11/09 05:09:14;;;;;;;;;;;16.30;89.40;;;;;;4027757;29;19939;-43
2023/11/09 05:11:55;;;;;;;;;;;16.30;89.50;;;;;;4027031;29;19954;-47
2023/11/09 05:14:36;;;;;;;;;;;16.20;89.70;;;;;;4029819;29;19984;-46
2023/11/09 05:17:16;;;;;;;;;;;16.30;89.70;;;;;;4027511;29;19934;-42
2023/11/09 05:19:58;;;;;;;;;;;16.30;89.40;;;;;;4043154;29;20397;-45
2023/11/09 05:22:39;;;;;;;;;;;16.30;89.20;;;;;;4031198;29;19998;-44
2023/11/09 05:25:21;;;;;;;;;;;16.40;89.30;;;;;;4029838;29;19950;-45
2023/11/09 05:28:03;;;;;;;;;;;16.40;89.50;;;;;;4030603;29;19974;-46
2023/11/09 05:30:44;;;;;;;;;;;16.40;89.50;;;;;;4042303;29;19938;-43
2023/11/09 05:33:24;;;;;;;;;;;16.40;89.40;;;;;;4042408;29;20383;-43
2023/11/09 05:36:07;;;;;;;;;;;16.40;90.00;;;;;;4041383;29;19974;-43
2023/11/09 05:38:48;;;;;;;;;;;16.50;89.20;;;;;;4041846;29;19938;-45
2023/11/09 05:41:31;;;;;;;;;;;16.50;89.20;;;;;;4039682;29;20503;-46
2023/11/09 05:44:12;;;;;;;;;;;16.50;89.30;;;;;;4041266;29;19934;-45
2023/11/09 05:46:54;;;;;;;;;;;16.50;89.20;;;;;;4042940;29;20018;-48
2023/11/09 05:49:35;;;;;;;;;;;16.50;89.30;;;;;;4042675;29;19983;-46
2023/11/09 05:52:16;;;;;;;;;;;16.50;89.20;;;;;;4033368;29;20405;-46
2023/11/09 05:54:57;;;;;;;;;;;16.50;89.20;;;;;;4044760;29;19947;-51
2023/11/09 05:57:39;;;;;;;;;;;16.40;89.30;;;;;;4033743;29;19958;-50
2023/11/09 06:00:20;;;;;;;;;;;16.40;90.10;;;;;;4043285;29;20431;-49
2023/11/09 06:03:01;;;;;;;;;;;16.40;89.60;;;;;;4030746;29;20327;-52
2023/11/09 06:05:41;;;;;;;;;;;16.40;89.80;;;;;;4030019;29;19935;-51
2023/11/09 06:08:22;;;;;;;;;;;16.40;89.60;;;;;;4030010;29;19939;-45
2023/11/09 06:11:03;;;;;;;;;;;16.50;89.50;;;;;;4039088;29;19939;-47
2023/11/09 06:13:45;;;;;;;;;;;16.50;89.40;;;;;;4030281;29;19943;-47
2023/11/09 06:16:25;;;;;;;;;;;16.50;89.30;;;;;;4030473;29;19935;-46
2023/11/09 06:19:07;;;;;;;;;;;16.50;89.30;;;;;;4030180;29;19939;-52
2023/11/09 06:21:51;;;;;;;;;;;16.50;89.30;;;;;;4033507;29;20068;-47
2023/11/09 06:24:32;;;;;;;;;;;16.50;89.30;;;;;;4045163;29;19938;-46
2023/11/09 06:27:15;;;;;;;;;;;16.50;89.30;;;;;;4045079;29;20002;-47
2023/11/09 06:29:58;;;;;;;;;;;16.50;89.00;;;;;;4044948;29;20592;-47
2023/11/09 06:32:40;;;;;;;;;;;16.50;89.70;;;;;;4043895;29;19938;-48
2023/11/09 06:35:21;;;;;;;;;;;16.50;88.70;;;;;;4045328;29;19935;-50
2023/11/09 06:38:02;;;;;;;;;;;16.50;88.90;;;;;;4044350;29;19966;-52
2023/11/09 06:40:43;;;;;;;;;;;16.50;89.90;;;;;;4040711;29;20022;-49
2023/11/09 06:43:25;;;;;;;;;;;16.50;89.00;;;;;;4029310;29;20403;-46
2023/11/09 06:46:07;;;;;;;;;;;16.50;89.10;;;;;;4028416;29;19939;-44
2023/11/09 06:48:48;;;;;;;;;;;16.50;89.20;;;;;;4028990;29;19983;-44
2023/11/09 06:51:29;;;;;;;;;;;16.40;89.20;;;;;;4028820;29;20995;-48
2023/11/09 06:54:10;;;;;;;;;;;16.50;89.10;;;;;;4028466;29;19938;-47
2023/11/09 06:56:50;;;;;;;;;;;16.50;89.00;;;;;;4028847;29;19934;-43
2023/11/09 06:59:31;;;;;;;;;;;16.50;88.80;;;;;;4028280;29;20304;-43
2023/11/09 07:02:13;;;;;;;;;;;16.50;88.80;;;;;;4029110;29;19934;-44
2023/11/09 07:04:54;;;;;;;;;;;16.50;89.70;;;;;;4015981;29;19938;-42
2023/11/09 07:07:36;;;;;;;;;;;16.40;88.80;;;;;;4027859;29;19935;-55
2023/11/09 07:10:18;;;;;;;;;;;16.40;88.90;;;;;;4028639;29;19935;-44
2023/11/09 07:12:58;;;;;;;;;;;16.40;89.00;;;;;;4028942;29;20023;-43
2023/11/09 07:15:40;;;;;;;;;;;16.40;89.30;;;;;;4028742;29;19983;-43
2023/11/09 07:18:22;;;;;;;;;;;16.40;89.80;;;;;;4028779;29;19970;-46
2023/11/09 07:21:07;;;;;;;;;;;16.50;90.00;;;;;;4017173;29;20336;-43
2023/11/09 07:23:59;;;;;;;;;;;16.50;90.10;;;;;;4028935;29;20068;-46
2023/11/09 07:26:40;;;;;;;;;;;16.50;90.10;;;;;;4028923;29;20126;-44
2023/11/09 07:29:21;;;;;;;;;;;16.60;90.10;;;;;;4028127;29;19938;-43
2023/11/09 07:32:01;;;;;;;;;;;16.50;90.00;;;;;;4028931;29;19950;-47
2023/11/09 07:34:43;;;;;;;;;;;16.60;89.80;;;;;;4042398;29;19938;-48
2023/11/09 07:37:24;;;;;;;;;;;16.70;89.40;;;;;;4038636;29;19942;-43
2023/11/09 07:40:09;;;;;;;;;;;16.70;89.10;;;;;;4028604;29;20292;-44
2023/11/09 07:42:50;;;;;;;;;;;16.70;88.90;;;;;;4028476;29;19939;-44
2023/11/09 07:45:32;;;;;;;;;;;16.60;88.60;;;;;;4035509;29;19962;-43
2023/11/09 07:48:13;;;;;;;;;;;16.60;88.50;;;;;;4031589;29;20704;-45
2023/11/09 07:50:55;;;;;;;;;;;16.60;88.50;;;;;;4043468;29;19935;-43
2023/11/09 07:53:36;;;;;;;;;;;16.50;89.10;;;;;;4033790;29;19960;-45
2023/11/09 07:56:17;;;;;;;;;;;16.50;88.40;;;;;;4038690;29;19934;-53
2023/11/09 07:58:58;;;;;;;;;;;16.50;88.40;;;;;;4027917;29;20382;-51
2023/11/09 08:01:39;;;;;;;;;;;16.50;88.20;;;;;;4040666;29;20496;-48
2023/11/09 08:04:19;;;;;;;;;;;16.50;88.10;;;;;;4043435;29;20032;-51
2023/11/09 08:07:02;;;;;;;;;;;16.50;87.70;;;;;;4043667;29;19939;-47
2023/11/09 08:09:43;;;;;;;;;;;16.50;87.60;;;;;;4043193;29;19934;-46
2023/11/09 08:12:23;;;;;;;;;;;16.50;87.40;;;;;;4039312;29;19939;-47
2023/11/09 08:15:10;;;;;;;;;;;16.40;87.30;;;;;;4028359;29;19939;-47
2023/11/09 08:17:51;;;;;;;;;;;16.40;87.20;;;;;;4016787;29;20498;-49
2023/11/09 08:20:32;;;;;;;;;;;16.40;87.40;;;;;;4035487;29;19934;-52
2023/11/09 08:23:14;;;;;;;;;;;16.30;87.40;;;;;;4027897;29;20030;-46
2023/11/09 08:25:56;;;;;;;;;;;16.40;87.40;;;;;;4028787;29;19939;-53
2023/11/09 08:28:37;;;;;;;;;;;16.40;87.30;;;;;;4041411;29;19973;-52
2023/11/09 08:31:18;;;;;;;;;;;16.40;86.90;;;;;;4033820;29;19934;-48
2023/11/09 08:33:58;;;;;;;;;;;16.40;86.80;;;;;;4027422;29;20291;-48
2023/11/09 08:36:39;;;;;;;;;;;16.40;86.70;;;;;;4027112;29;20002;-47
2023/11/09 08:39:22;;;;;;;;;;;16.40;86.50;;;;;;4028181;29;19979;-47
2023/11/09 08:42:04;;;;;;;;;;;16.40;87.40;;;;;;4042254;29;19937;-51
2023/11/09 08:44:45;;;;;;;;;;;16.40;86.80;;;;;;4015955;29;20501;-49
2023/11/09 08:47:25;;;;;;;;;;;16.40;87.20;;;;;;4016065;29;20009;-50
2023/11/09 08:50:08;;;;;;;;;;;16.30;87.50;;;;;;4015097;29;20011;-46
2023/11/09 08:52:49;;;;;;;;;;;16.30;88.00;;;;;;4027166;29;19939;-47
2023/11/09 08:55:32;;;;;;;;;;;16.20;88.30;;;;;;4027010;29;19950;-46
2023/11/09 08:58:13;;;;;;;;;;;16.20;88.80;;;;;;4028039;29;19981;-47
2023/11/09 09:00:54;;;;;;;;;;;16.20;89.20;;;;;;4027508;29;20659;-47
2023/11/09 09:03:35;;;;;;;;;;;16.10;89.40;;;;;;4027375;29;20012;-53
2023/11/09 09:06:17;;;;;;;;;;;16.10;89.70;;;;;;4028237;29;19971;-49
2023/11/09 09:08:59;;;;;;;;;;;16.00;89.90;;;;;;4028337;29;20008;-52
2023/11/09 09:11:44;;;;;;;;;;;16.00;90.10;;;;;;4029751;29;19939;-51
2023/11/09 09:14:24;;;;;;;;;;;16.00;90.50;;;;;;4042586;29;19935;-50
2023/11/09 09:17:05;;;;;;;;;;;16.00;90.30;;;;;;4042945;29;19935;-47
2023/11/09 09:19:46;;;;;;;;;;;15.90;90.40;;;;;;4039785;29;19934;-46
2023/11/09 09:22:28;;;;;;;;;;;16.00;90.50;;;;;;4027257;29;19955;-49
2023/11/09 09:25:10;;;;;;;;;;;16.00;90.50;;;;;;4027502;29;19998;-47
2023/11/09 09:27:53;;;;;;;;;;;16.00;90.40;;;;;;4027805;29;19979;-53
2023/11/09 09:30:35;;;;;;;;;;;16.10;90.30;;;;;;4030693;29;19939;-48
2023/11/09 09:33:16;;;;;;;;;;;16.20;90.30;;;;;;4030822;29;19948;-49
2023/11/09 09:35:57;;;;;;;;;;;16.20;90.20;;;;;;4030554;29;20048;-47
2023/11/09 09:38:38;;;;;;;;;;;16.20;90.20;;;;;;4018968;29;19965;-47
2023/11/09 09:41:26;;;;;;;;;;;16.20;90.10;;;;;;4030582;29;19974;-50
2023/11/09 09:44:12;;;;;;;;;;;16.10;90.20;;;;;;4030202;29;19934;-49
2023/11/09 09:46:56;;;;;;;;;;;16.20;90.20;;;;;;4030697;29;20415;-49
2023/11/09 09:49:37;;;;;;;;;;;16.20;90.30;;;;;;4027136;29;19938;-52
2023/11/09 09:52:17;;;;;;;;;;;16.20;90.30;;;;;;4030549;29;19938;-52
2023/11/09 09:54:58;;;;;;;;;;;16.20;90.60;;;;;;4029285;29;20294;-46
2023/11/09 09:57:39;;;;;;;;;;;16.30;90.40;;;;;;4042430;29;20488;-51
2023/11/09 10:00:26;;;;;;;;;;;16.30;90.20;;;;;;4039520;29;19934;-49
2023/11/09 10:03:07;;;;;;;;;;;16.40;90.00;;;;;;4030583;29;20388;-47
2023/11/09 10:05:48;;;;;;;;;;;16.50;90.00;;;;;;4034178;29;19938;-47
2023/11/09 10:08:29;;;;;;;;;;;16.50;89.70;;;;;;4029185;29;19939;-53
2023/11/09 10:11:15;;;;;;;;;;;16.50;89.60;;;;;;4029621;29;19935;-52
2023/11/09 10:13:56;;;;;;;;;;;16.50;89.50;;;;;;4029474;29;19935;-51
2023/11/09 10:16:38;;;;;;;;;;;16.50;89.40;;;;;;4030330;29;19939;-47
2023/11/09 10:19:19;;;;;;;;;;;16.40;89.40;;;;;;4029771;29;19954;-49
2023/11/09 10:22:05;;;;;;;;;;;16.40;90.10;;;;;;4029721;29;19935;-48
2023/11/09 10:24:46;;;;;;;;;;;16.40;89.60;;;;;;4044754;29;20037;-48
2023/11/09 10:27:30;;;;;;;;;;;16.30;89.60;;;;;;4041875;29;19978;-47
2023/11/09 10:30:11;;;;;;;;;;;16.30;89.70;;;;;;4044804;29;19938;-47
2023/11/09 10:33:02;;;;;;;;;;;16.30;89.60;;;;;;4045306;29;20022;-47
2023/11/09 10:35:44;;;;;;;;;;;16.20;90.20;;;;;;4044481;29;20022;-45
2023/11/09 10:38:25;;;;;;;;;;;16.20;89.60;;;;;;4018263;29;19938;-49
2023/11/09 10:41:08;;;;;;;;;;;16.20;89.70;;;;;;4029187;29;19950;-47
2023/11/09 10:43:59;;;;;;;;;;;16.10;90.00;;;;;;4029547;29;19935;-47
2023/11/09 10:46:43;;;;;;;;;;;16.10;90.00;;;;;;4030561;29;19939;-43
2023/11/09 10:49:26;;;;;;;;;;;16.10;90.20;;;;;;4029506;29;19938;-42
2023/11/09 10:52:08;;;;;;;;;;;16.10;90.10;;;;;;4028668;29;19934;-42
2023/11/09 10:54:51;;;;;;;;;;;16.10;90.20;;;;;;4029137;29;19935;-42
2023/11/09 10:57:32;;;;;;;;;;;16.10;90.20;;;;;;4030597;29;19935;-42
2023/11/09 11:00:26;;;;;;;;;;;16.00;90.00;;;;;;4022491;29;20291;-44
2023/11/09 11:03:09;;;;;;;;;;;16.00;90.50;;;;;;4026666;29;19979;-44
2023/11/09 11:05:54;;;;;;;;;;;16.00;90.40;;;;;;4036937;29;19938;-44
2023/11/09 11:08:38;;;;;;;;;;;15.90;90.50;;;;;;4042677;29;20395;-42
2023/11/09 11:11:24;;;;;;;;;;;15.90;90.60;;;;;;4043510;29;20648;-42
2023/11/09 11:14:07;;;;;;;;;;;15.90;90.50;;;;;;4042398;29;19947;-42
2023/11/09 11:16:56;;;;;;;;;;;15.90;90.40;;;;;;4028149;29;20021;-44
2023/11/09 11:19:51;;;;;;;;;;;15.90;90.60;;;;;;4029913;29;19938;-44
2023/11/09 11:22:41;;;;;;;;;;;15.90;90.60;;;;;;4028058;29;19939;-44
2023/11/09 11:25:30;;;;;;;;;;;15.90;90.40;;;;;;4029967;29;20260;-41
2023/11/09 11:28:11;;;;;;;;;;;15.90;90.50;;;;;;4028740;29;19938;-45
2023/11/09 11:30:52;;;;;;;;;;;15.90;90.60;;;;;;4039165;29;19991;-42
2023/11/09 11:33:35;;;;;;;;;;;15.90;90.60;;;;;;4029088;29;19975;-44
2023/11/09 11:36:26;;;;;;;;;;;15.90;90.40;;;;;;4041678;29;20271;-45
2023/11/09 11:39:20;;;;;;;;;;;15.90;90.50;;;;;;4044320;29;20768;-46
2023/11/09 11:42:15;;;;;;;;;;;15.80;90.40;;;;;;4044977;29;19935;-43
2023/11/09 11:44:59;;;;;;;;;;;15.80;90.60;;;;;;4050822;29;19939;-43
2023/11/09 11:47:43;;;;;;;;;;;15.80;90.40;;;;;;4028555;29;19934;-43
2023/11/09 11:50:25;;;;;;;;;;;15.80;90.50;;;;;;4028409;29;19963;-42
2023/11/09 11:53:12;;;;;;;;;;;15.80;90.60;;;;;;4039081;29;20018;-42
2023/11/09 11:55:57;;;;;;;;;;;15.80;90.50;;;;;;4042553;29;19938;-42
2023/11/09 11:58:52;;;;;;;;;;;15.80;90.60;;;;;;4043589;29;20106;-43
2023/11/09 12:01:36;;;;;;;;;;;15.80;90.10;;;;;;4027043;29;19935;-43
2023/11/09 12:04:17;;;;;;;;;;;15.80;90.10;;;;;;4027846;29;20063;-42
2023/11/09 12:06:59;;;;;;;;;;;15.80;90.50;;;;;;4028408;29;20402;-44
2023/11/09 12:09:42;;;;;;;;;;;15.80;90.20;;;;;;4029635;29;19939;-45
2023/11/09 12:12:26;;;;;;;;;;;15.70;90.10;;;;;;4028411;29;19935;-44
2023/11/09 12:15:10;;;;;;;;;;;15.80;90.20;;;;;;4028591;29;19938;-42
2023/11/09 12:17:51;;;;;;;;;;;15.70;90.00;;;;;;4028314;29;19939;-42
2023/11/09 12:20:33;;;;;;;;;;;15.80;90.20;;;;;;4026772;29;19954;-42
2023/11/09 12:23:16;;;;;;;;;;;15.80;90.20;;;;;;4027543;29;19935;-43
2023/11/09 12:25:58;;;;;;;;;;;15.70;90.20;;;;;;4027796;29;19934;-44
2023/11/09 12:28:40;;;;;;;;;;;15.70;90.20;;;;;;4028444;29;19942;-43
2023/11/09 12:31:22;;;;;;;;;;;15.70;90.30;;;;;;4029315;29;20681;-43
2023/11/09 12:34:04;;;;;;;;;;;15.70;90.30;;;;;;4039962;29;20358;-44
2023/11/09 12:36:47;;;;;;;;;;;15.70;90.30;;;;;;4043453;29;20403;-43
2023/11/09 12:39:29;;;;;;;;;;;15.70;90.20;;;;;;4032725;29;19939;-45
2023/11/09 12:42:14;;;;;;;;;;;15.70;90.10;;;;;;4027794;29;20391;-45
2023/11/09 12:44:56;;;;;;;;;;;15.60;90.10;;;;;;4040265;29;20701;-45
2023/11/09 12:47:39;;;;;;;;;;;15.60;90.80;;;;;;4042932;29;20303;-43
2023/11/09 12:50:20;;;;;;;;;;;15.60;90.40;;;;;;4032336;29;20076;-43
2023/11/09 12:53:02;;;;;;;;;;;15.70;90.40;;;;;;4027955;29;19935;-44
2023/11/09 12:55:44;;;;;;;;;;;15.70;90.40;;;;;;4031819;29;20371;-47
2023/11/09 12:58:29;;;;;;;;;;;15.70;90.40;;;;;;4043209;29;20279;-50
2023/11/09 13:01:14;;;;;;;;;;;15.70;90.50;;;;;;4043049;29;20335;-48
2023/11/09 13:03:57;;;;;;;;;;;15.70;90.20;;;;;;4041226;29;19954;-56
2023/11/09 13:06:39;;;;;;;;;;;15.80;90.40;;;;;;4043321;29;19939;-47
2023/11/09 13:09:39;;;;;;;;;;;15.80;90.20;;;;;;4039436;29;19940;-54
2023/11/09 13:12:31;;;;;;;;;;;15.80;90.40;;;;;;4026892;29;19938;-50
2023/11/09 13:15:32;;;;;;;;;;;15.90;90.50;;;;;;4015888;29;19979;-55
2023/11/09 13:18:16;;;;;;;;;;;15.90;90.60;;;;;;4027496;29;21245;-50
2023/11/09 13:20:58;;;;;;;;;;;15.90;90.60;;;;;;4027144;29;20023;-54
2023/11/09 13:23:43;;;;;;;;;;;15.90;90.30;;;;;;4028961;29;19935;-51
2023/11/09 13:26:28;;;;;;;;;;;15.90;90.40;;;;;;4027380;29;19984;-54
2023/11/09 13:29:11;;;;;;;;;;;16.00;90.20;;;;;;4018100;29;19934;-48
2023/11/09 13:31:56;;;;;;;;;;;16.00;90.10;;;;;;4042103;29;20456;-52
2023/11/09 13:34:47;;;;;;;;;;;16.00;90.30;;;;;;3994114;29;19939;-53
2023/11/09 13:37:32;;;;;;;;;;;16.00;89.20;;;;;;4038803;29;20330;-54
2023/11/09 13:40:34;;;;;;;;;;;16.00;88.80;;;;;;4030582;29;20426;-48
2023/11/09 13:43:21;;;;;;;;;;;16.10;89.60;;;;;;4035433;29;19987;-48
2023/11/09 13:46:07;;;;;;;;;;;16.10;89.80;;;;;;4034808;29;19970;-53
2023/11/09 13:48:50;;;;;;;;;;;16.10;90.20;;;;;;4027444;29;19939;-51
2023/11/09 13:51:33;;;;;;;;;;;16.10;90.40;;;;;;4026973;29;19938;-53
2023/11/09 13:54:24;;;;;;;;;;;16.10;90.10;;;;;;4026846;29;19939;-49
2023/11/09 13:57:23;;;;;;;;;;;16.10;90.20;;;;;;4026117;29;19943;-52
2023/11/09 14:00:11;;;;;;;;;;;16.00;90.40;;;;;;4039809;29;19939;-54
2023/11/09 14:02:52;;;;;;;;;;;16.00;90.30;;;;;;4042089;29;19998;-54
2023/11/09 14:05:33;;;;;;;;;;;16.00;90.40;;;;;;4042503;29;19934;-50
2023/11/09 14:08:18;;;;;;;;;;;15.90;90.10;;;;;;4030366;29;19934;-54
2023/11/09 14:11:01;;;;;;;;;;;15.90;90.30;;;;;;4030282;29;19939;-50
2023/11/09 14:13:46;;;;;;;;;;;15.90;89.80;;;;;;4041848;29;20382;-54
2023/11/09 14:16:33;;;;;;;;;;;15.90;90.20;;;;;;4044314;29;19937;-51
2023/11/09 14:19:20;;;;;;;;;;;15.90;90.40;;;;;;4029801;29;19986;-50
2023/11/09 14:22:01;;;;;;;;;;;15.80;90.20;;;;;;4017733;29;20071;-49
2023/11/09 14:24:44;;;;;;;;;;;15.80;90.20;;;;;;4029264;29;20067;-53
2023/11/09 14:27:24;;;;;;;;;;;15.80;90.30;;;;;;4030213;29;19934;-51
2023/11/09 14:30:06;;;;;;;;;;;15.70;90.10;;;;;;4029012;29;19939;-53
2023/11/09 14:32:47;;;;;;;;;;;15.70;90.30;;;;;;4029168;29;20422;-49
2023/11/09 14:35:29;;;;;;;;;;;15.70;90.40;;;;;;4028737;29;19938;-50
2023/11/09 14:38:10;;;;;;;;;;;15.70;90.60;;;;;;4029890;29;19935;-49
2023/11/09 14:40:54;;;;;;;;;;;15.70;91.00;;;;;;4017681;29;20020;-48
2023/11/09 14:43:35;;;;;;;;;;;15.70;90.40;;;;;;4032596;29;20350;-48
2023/11/09 14:46:20;;;;;;;;;;;15.70;90.50;;;;;;4044305;29;19950;-52
2023/11/09 14:49:01;;;;;;;;;;;15.70;90.40;;;;;;4044649;29;20635;-51
2023/11/09 14:51:42;;;;;;;;;;;15.70;90.50;;;;;;4044917;29;19934;-53
2023/11/09 14:54:28;;;;;;;;;;;15.70;90.40;;;;;;4044331;29;20419;-53
2023/11/09 14:57:15;;;;;;;;;;;15.60;90.50;;;;;;4029427;29;19938;-53
2023/11/09 14:59:56;;;;;;;;;;;15.60;90.70;;;;;;4029369;29;19982;-51
2023/11/09 15:02:38;;;;;;;;;;;15.60;90.70;;;;;;4009231;29;19935;-49
2023/11/09 15:05:22;;;;;;;;;;;15.60;90.70;;;;;;4024588;29;20099;-51
2023/11/09 15:08:06;;;;;;;;;;;15.60;90.70;;;;;;4044409;29;20005;-51
2023/11/09 15:10:46;;;;;;;;;;;15.60;90.80;;;;;;4044511;29;19943;-51
2023/11/09 15:13:29;;;;;;;;;;;15.60;90.90;;;;;;4044214;29;19934;-52
2023/11/09 15:16:09;;;;;;;;;;;15.60;91.00;;;;;;4043008;29;19935;-52
2023/11/09 15:18:50;;;;;;;;;;;15.60;91.10;;;;;;4042834;29;19938;-51
2023/11/09 15:21:32;;;;;;;;;;;15.60;91.10;;;;;;4028565;29;19991;-50
2023/11/09 15:24:12;;;;;;;;;;;15.60;91.20;;;;;;4028791;29;19937;-52
2023/11/09 15:26:53;;;;;;;;;;;15.50;91.20;;;;;;4029153;29;19939;-50
2023/11/09 15:29:37;;;;;;;;;;;15.50;91.10;;;;;;4043266;29;20018;-50
2023/11/09 15:32:18;;;;;;;;;;;15.50;91.20;;;;;;4029051;29;19947;-48
2023/11/09 15:35:01;;;;;;;;;;;15.50;91.20;;;;;;4009925;29;19993;-52
2023/11/09 15:37:44;;;;;;;;;;;15.50;91.20;;;;;;4034872;29;20504;-52
2023/11/09 15:40:25;;;;;;;;;;;15.50;91.20;;;;;;4044027;29;19939;-51
2023/11/09 15:43:20;;;;;;;;;;;15.50;91.30;;;;;;4042846;29;19935;-51
2023/11/09 15:46:04;;;;;;;;;;;15.50;91.30;;;;;;4044559;29;19982;-51
2023/11/09 15:48:46;;;;;;;;;;;15.50;91.40;;;;;;4031643;29;20019;-52
2023/11/09 15:51:30;;;;;;;;;;;15.50;91.40;;;;;;4042991;29;24295;-52
2023/11/09 15:54:15;;;;;;;;;;;15.50;91.50;;;;;;4043819;29;19982;-49
2023/11/09 15:56:56;;;;;;;;;;;15.40;91.90;;;;;;4044005;29;19982;-51